Time;durP1;ratioP1;P1;durP2;ratioP2;P2;SDS_P1;SDS_P2;PMS_P1;PMS_P2;Temp;Humidity;BMP_temperature;BMP_pressure;BME280_temperature;BME280_humidity;BME280_pressure;Samples;Min_cycle;Max_cycle;Signal;HPM_P1;HPM_P2
2023/04/20 00:02:04;;;;;;;8.33;2.90;;;6.90;91.30;;;;;;10432918;28;20220;-74
2023/04/20 00:07:05;;;;;;;7.10;2.80;;;6.80;91.10;;;;;;10432348;28;20275;-74
2023/04/20 00:12:05;;;;;;;5.27;3.30;;;6.70;91.90;;;;;;10423322;28;20299;-73
2023/04/20 00:17:06;;;;;;;5.43;3.10;;;6.60;92.50;;;;;;10431703;28;20229;-73
2023/04/20 00:22:07;;;;;;;7.43;3.77;;;6.60;92.60;;;;;;10428984;28;20216;-72
2023/04/20 00:27:08;;;;;;;7.33;3.47;;;6.50;92.50;;;;;;10424947;28;20232;-75
2023/04/20 00:32:08;;;;;;;3.73;2.83;;;6.50;92.80;;;;;;10433443;28;20299;-76
2023/04/20 00:37:09;;;;;;;6.47;3.40;;;6.60;92.40;;;;;;10430582;28;20223;-73
2023/04/20 00:42:09;;;;;;;4.40;3.20;;;6.50;92.50;;;;;;10426854;28;20249;-73
2023/04/20 00:47:10;;;;;;;8.37;3.60;;;6.50;92.70;;;;;;10426126;28;20297;-73
2023/04/20 00:52:11;;;;;;;8.23;4.00;;;6.50;92.50;;;;;;10427274;28;20216;-72
2023/04/20 00:57:13;;;;;;;5.50;3.13;;;6.50;92.20;;;;;;10429998;28;20236;-75
2023/04/20 01:02:13;;;;;;;9.47;3.90;;;6.60;92.10;;;;;;10422712;28;20221;-73
2023/04/20 01:07:14;;;;;;;7.23;3.87;;;6.70;92.10;;;;;;10417322;28;20235;-73
2023/04/20 01:12:15;;;;;;;10.27;4.70;;;6.70;92.30;;;;;;10419299;28;20231;-73
2023/04/20 01:17:16;;;;;;;10.00;4.67;;;6.70;92.50;;;;;;10420617;28;20290;-74
2023/04/20 01:22:18;;;;;;;9.20;3.10;;;6.60;92.60;;;;;;10420517;28;20224;-76
2023/04/20 01:27:19;;;;;;;6.77;3.77;;;6.60;92.90;;;;;;10422997;28;20304;-75
2023/04/20 01:32:20;;;;;;;5.67;3.40;;;6.60;92.90;;;;;;10424372;28;20331;-74
2023/04/20 01:37:21;;;;;;;7.93;3.70;;;6.60;93.00;;;;;;10419260;28;20232;-73
2023/04/20 01:42:21;;;;;;;5.40;3.43;;;6.60;93.20;;;;;;10431684;28;20644;-75
2023/04/20 01:47:22;;;;;;;4.07;3.27;;;6.60;93.30;;;;;;10424894;28;21028;-73
2023/04/20 01:52:22;;;;;;;6.23;3.50;;;6.70;93.40;;;;;;10423173;28;20232;-73
2023/04/20 01:57:23;;;;;;;8.07;4.20;;;6.60;93.50;;;;;;10421067;28;20326;-75
2023/04/20 02:02:24;;;;;;;5.13;3.60;;;6.60;93.80;;;;;;10417650;28;20230;-72
2023/04/20 02:07:24;;;;;;;7.67;3.73;;;6.60;93.70;;;;;;10422578;28;20310;-71
2023/04/20 02:12:25;;;;;;;5.93;3.33;;;6.60;93.80;;;;;;10430163;28;20224;-73
2023/04/20 02:17:25;;;;;;;7.60;4.20;;;6.60;93.90;;;;;;10417255;28;20604;-74
2023/04/20 02:22:27;;;;;;;9.00;3.53;;;6.60;94.10;;;;;;10412810;28;20223;-73
2023/04/20 02:27:28;;;;;;;8.50;4.23;;;6.60;94.80;;;;;;10415689;28;20228;-72
2023/04/20 02:32:28;;;;;;;6.30;3.70;;;6.50;95.00;;;;;;10430406;28;20587;-74
2023/04/20 02:37:29;;;;;;;4.30;3.43;;;6.40;95.50;;;;;;10423763;28;20243;-73
2023/04/20 02:42:30;;;;;;;8.43;3.97;;;6.30;95.70;;;;;;10415134;28;20314;-74
2023/04/20 02:47:30;;;;;;;5.50;3.70;;;6.30;96.10;;;;;;10416849;28;20661;-75
2023/04/20 02:52:31;;;;;;;5.93;3.73;;;6.10;96.60;;;;;;10427913;28;20231;-74
2023/04/20 02:57:32;;;;;;;7.37;3.73;;;6.10;97.10;;;;;;10415760;28;20230;-70
2023/04/20 03:02:32;;;;;;;7.97;4.30;;;6.10;97.40;;;;;;10416638;28;20228;-75
2023/04/20 03:07:33;;;;;;;9.57;4.23;;;6.00;97.60;;;;;;10419298;28;20925;-71
2023/04/20 03:12:33;;;;;;;6.47;4.27;;;5.90;97.80;;;;;;10419881;28;20228;-74
2023/04/20 03:17:34;;;;;;;7.87;3.97;;;5.80;98.30;;;;;;10425177;28;20594;-73
2023/04/20 03:22:34;;;;;;;6.13;4.43;;;5.70;98.80;;;;;;10433960;28;20227;-70
2023/04/20 03:27:35;;;;;;;4.17;3.77;;;5.70;99.30;;;;;;10428676;28;20226;-71
2023/04/20 03:32:37;;;;;;;16.13;5.77;;;5.70;99.70;;;;;;10430843;28;20226;-72
2023/04/20 03:37:38;;;;;;;13.57;6.20;;;5.70;99.90;;;;;;10433030;28;21163;-73
2023/04/20 03:42:41;;;;;;;10.33;4.70;;;5.70;99.90;;;;;;10430237;28;20286;-73
2023/04/20 03:47:42;;;;;;;6.30;4.53;;;5.70;99.90;;;;;;10428643;28;20220;-73
2023/04/20 03:52:42;;;;;;;7.53;4.50;;;5.70;99.90;;;;;;10427190;28;20242;-73
2023/04/20 03:57:43;;;;;;;9.73;4.40;;;5.70;99.90;;;;;;10424282;28;20238;-73
2023/04/20 04:02:44;;;;;;;7.90;4.57;;;5.70;99.90;;;;;;10428157;28;20215;-73
2023/04/20 04:07:44;;;;;;;14.97;6.20;;;5.70;99.90;;;;;;10426856;28;20369;-71
2023/04/20 04:12:45;;;;;;;11.30;6.00;;;5.70;99.90;;;;;;10421889;28;20353;-71
2023/04/20 04:17:46;;;;;;;12.27;5.30;;;5.70;99.90;;;;;;10426696;28;20315;-73
2023/04/20 04:22:47;;;;;;;6.27;4.73;;;5.70;99.90;;;;;;10416091;28;20227;-72
2023/04/20 04:27:48;;;;;;;7.67;4.63;;;5.70;99.90;;;;;;10417781;28;20235;-74
2023/04/20 04:32:49;;;;;;;11.43;4.80;;;5.70;99.90;;;;;;10428525;28;20242;-72
2023/04/20 04:37:51;;;;;;;10.10;5.30;;;5.80;99.90;;;;;;10430891;28;20361;-72
2023/04/20 04:42:52;;;;;;;7.67;4.97;;;5.80;99.90;;;;;;10415638;28;20231;-71
2023/04/20 04:47:52;;;;;;;9.80;5.00;;;5.90;99.90;;;;;;10412756;28;20221;-68
2023/04/20 04:52:53;;;;;;;6.27;4.60;;;6.00;99.90;;;;;;10423652;28;20220;-69
2023/04/20 04:57:54;;;;;;;11.77;5.03;;;6.10;99.90;;;;;;10411470;28;20227;-66
2023/04/20 05:02:55;;;;;;;8.37;4.57;;;6.20;99.90;;;;;;10400082;28;20223;-67
2023/04/20 05:07:56;;;;;;;11.53;4.67;;;6.40;99.90;;;;;;10420878;28;20254;-68
2023/04/20 05:12:58;;;;;;;8.77;4.90;;;6.50;99.90;;;;;;10399411;28;20307;-70
2023/04/20 05:18:00;;;;;;;7.00;4.73;;;6.60;99.90;;;;;;10417848;28;20287;-69
2023/04/20 05:23:01;;;;;;;9.30;4.70;;;6.60;99.90;;;;;;10414500;28;20228;-72
2023/04/20 05:28:03;;;;;;;6.93;5.03;;;6.70;99.90;;;;;;10422840;28;20223;-72
2023/04/20 05:33:04;;;;;;;6.47;5.10;;;6.70;99.90;;;;;;10422899;28;20223;-72
2023/04/20 05:38:05;;;;;;;7.60;5.83;;;6.80;99.90;;;;;;10421787;28;20565;-71
2023/04/20 05:43:06;;;;;;;8.43;5.10;;;6.90;99.90;;;;;;10400898;28;20219;-71
2023/04/20 05:48:07;;;;;;;11.27;5.20;;;7.00;99.90;;;;;;10408305;28;20726;-71
2023/04/20 05:53:07;;;;;;;10.27;5.47;;;7.10;99.90;;;;;;10415462;28;20224;-71
2023/04/20 05:58:08;;;;;;;6.33;5.00;;;7.10;99.90;;;;;;10419243;28;20281;-71
2023/04/20 06:03:09;;;;;;;8.50;5.50;;;7.20;99.90;;;;;;10403546;28;20215;-71
2023/04/20 06:08:18;;;;;;;7.40;5.60;;;7.10;99.90;;;;;;10421695;28;20608;-72
2023/04/20 06:13:19;;;;;;;7.47;5.53;;;7.10;99.90;;;;;;10407469;28;20813;-72
2023/04/20 06:18:20;;;;;;;6.53;4.70;;;7.30;99.90;;;;;;10402308;28;20243;-72
2023/04/20 06:23:20;;;;;;;7.87;5.40;;;7.20;99.90;;;;;;10407697;28;20273;-71
2023/04/20 06:28:21;;;;;;;7.83;4.50;;;7.10;99.90;;;;;;10413858;28;20239;-71
2023/04/20 06:33:22;;;;;;;6.57;4.97;;;7.00;99.90;;;;;;10399082;28;20744;-72
2023/04/20 06:38:24;;;;;;;12.03;5.23;;;7.00;99.90;;;;;;10415703;28;20295;-71
2023/04/20 06:43:25;;;;;;;7.07;4.40;;;7.10;99.90;;;;;;10422973;28;20773;-73
2023/04/20 06:48:26;;;;;;;6.40;5.13;;;7.10;99.90;;;;;;10422474;28;20323;-73
2023/04/20 06:53:27;;;;;;;8.33;4.63;;;7.20;99.90;;;;;;10427573;28;20220;-71
2023/04/20 06:58:28;;;;;;;6.00;4.83;;;7.20;99.90;;;;;;10413229;28;20221;-71
2023/04/20 07:03:29;;;;;;;11.40;5.57;;;7.40;99.90;;;;;;10416816;28;20224;-72
2023/04/20 07:08:30;;;;;;;8.00;5.10;;;7.60;99.90;;;;;;10415594;28;20235;-72
2023/04/20 07:13:31;;;;;;;7.30;4.40;;;7.70;99.90;;;;;;10407213;28;20229;-72
2023/04/20 07:18:31;;;;;;;6.13;4.67;;;8.00;99.90;;;;;;10428840;28;20256;-72
2023/04/20 07:23:32;;;;;;;5.37;4.47;;;8.20;99.90;;;;;;10418544;28;20215;-73
2023/04/20 07:28:33;;;;;;;7.63;5.20;;;8.40;99.90;;;;;;10428702;28;20226;-73
2023/04/20 07:33:34;;;;;;;9.73;4.93;;;8.50;99.90;;;;;;10421022;28;20219;-71
2023/04/20 07:38:35;;;;;;;8.60;4.80;;;8.90;99.90;;;;;;10421028;28;20872;-74
2023/04/20 07:43:36;;;;;;;10.10;4.23;;;10.40;99.90;;;;;;10423127;28;20217;-75
2023/04/20 07:48:37;;;;;;;4.67;3.93;;;13.30;99.90;;;;;;10431683;28;20244;-72
2023/04/20 07:53:37;;;;;;;7.53;4.20;;;13.20;99.90;;;;;;10417982;28;20300;-72
2023/04/20 07:58:39;;;;;;;7.23;4.20;;;12.20;99.90;;;;;;10426550;28;20225;-74
2023/04/20 08:03:40;;;;;;;6.60;3.90;;;12.90;99.90;;;;;;10426375;28;20282;-75
2023/04/20 08:08:41;;;;;;;8.33;4.30;;;13.00;99.90;;;;;;10418107;28;20286;-73
2023/04/20 08:13:41;;;;;;;6.87;4.40;;;13.30;99.90;;;;;;10436786;28;20216;-72
2023/04/20 08:18:45;;;;;;;7.07;3.87;;;13.70;99.00;;;;;;10434521;28;20308;-72
2023/04/20 08:23:45;;;;;;;8.60;4.03;;;15.80;94.80;;;;;;10418852;28;20311;-73
2023/04/20 08:28:46;;;;;;;5.40;3.70;;;16.10;90.10;;;;;;10423587;28;20706;-73
2023/04/20 08:33:46;;;;;;;6.57;4.17;;;14.50;92.00;;;;;;10420386;28;20534;-73
2023/04/20 08:39:04;;;;;;;8.13;4.30;;;13.40;94.50;;;;;;10414123;28;20221;-73
2023/04/20 08:44:06;;;;;;;6.13;4.00;;;13.10;96.20;;;;;;10431142;28;20221;-72
2023/04/20 08:49:11;;;;;;;4.23;3.70;;;12.70;96.10;;;;;;10428153;28;20224;-72
2023/04/20 08:54:12;;;;;;;5.00;3.80;;;13.70;94.80;;;;;;10427532;28;20217;-71
2023/04/20 08:59:14;;;;;;;5.63;4.10;;;15.00;92.40;;;;;;10422785;28;20590;-73
2023/04/20 09:04:21;;;;;;;8.70;4.10;;;14.90;91.80;;;;;;10429173;28;20220;-72
2023/04/20 09:09:24;;;;;;;6.87;4.10;;;14.40;93.40;;;;;;10430005;28;20226;-72
2023/04/20 09:14:24;;;;;;;9.23;4.10;;;14.90;92.00;;;;;;10411657;28;20210;-71
2023/04/20 09:19:26;;;;;;;5.03;3.90;;;15.80;88.70;;;;;;10430459;28;20225;-72
2023/04/20 09:24:35;;;;;;;6.13;4.63;;;16.00;87.40;;;;;;10426731;28;20336;-72
2023/04/20 09:29:38;;;;;;;5.20;4.43;;;15.70;86.10;;;;;;10421337;28;20219;-71
2023/04/20 09:34:43;;;;;;;7.10;4.20;;;16.40;84.80;;;;;;10422770;28;20313;-73
2023/04/20 09:39:45;;;;;;;5.13;3.83;;;18.10;74.20;;;;;;10416664;28;20220;-73
2023/04/20 09:44:47;;;;;;;7.73;3.73;;;16.90;72.10;;;;;;10431602;28;20241;-73
2023/04/20 09:49:49;;;;;;;14.97;4.00;;;16.80;71.60;;;;;;10432208;28;20234;-73
2023/04/20 09:54:50;;;;;;;5.37;4.00;;;15.90;76.40;;;;;;10409570;28;20219;-74
2023/04/20 09:59:51;;;;;;;6.93;3.97;;;17.20;71.00;;;;;;10428523;28;20224;-74
2023/04/20 10:04:55;;;;;;;4.97;3.33;;;17.20;67.60;;;;;;10424229;28;20690;-73
2023/04/20 10:10:22;;;;;;;12.97;4.03;;;16.20;70.30;;;;;;10420341;28;20217;-73
2023/04/20 10:15:39;;;;;;;5.13;3.53;;;17.10;64.30;;;;;;10419132;28;20223;-73
2023/04/20 10:20:40;;;;;;;3.87;3.30;;;15.70;69.00;;;;;;10420886;28;21157;-72
2023/04/20 10:25:41;;;;;;;4.93;3.27;;;16.70;69.20;;;;;;10431106;28;20230;-73
2023/04/20 10:30:52;;;;;;;4.30;3.33;;;19.20;58.30;;;;;;10414054;28;20244;-72
2023/04/20 10:35:55;;;;;;;3.60;3.30;;;19.10;56.00;;;;;;10428333;28;20227;-73
2023/04/20 10:40:55;;;;;;;3.83;3.43;;;19.70;54.30;;;;;;10422753;28;20212;-74
2023/04/20 10:45:56;;;;;;;3.60;3.30;;;19.50;53.80;;;;;;10427397;28;20225;-74
2023/04/20 10:51:07;;;;;;;4.53;3.40;;;18.50;55.10;;;;;;10424323;28;20224;-73
2023/04/20 10:56:08;;;;;;;5.53;3.60;;;20.00;52.80;;;;;;10419076;28;20303;-73
2023/04/20 11:01:08;;;;;;;6.07;3.33;;;20.70;50.60;;;;;;10420758;28;20284;-73
2023/04/20 11:06:09;;;;;;;4.10;3.67;;;18.60;55.40;;;;;;10423414;28;20258;-73
2023/04/20 11:11:27;;;;;;;6.60;3.40;;;17.20;58.20;;;;;;10423265;28;20218;-74
2023/04/20 11:16:27;;;;;;;6.07;3.93;;;15.80;61.00;;;;;;10418700;28;20229;-73
2023/04/20 11:21:41;;;;;;;8.23;3.70;;;15.90;62.80;;;;;;10412810;28;20291;-75
2023/04/20 11:26:42;;;;;;;5.13;3.40;;;15.70;64.90;;;;;;10415438;28;20269;-74
2023/04/20 11:31:50;;;;;;;7.10;3.33;;;15.70;62.60;;;;;;10420880;28;20875;-74
2023/04/20 11:36:50;;;;;;;3.67;3.10;;;15.10;64.80;;;;;;10428053;28;20300;-73
2023/04/20 11:41:52;;;;;;;3.80;3.23;;;14.90;63.00;;;;;;10433366;28;20667;-73
2023/04/20 11:46:55;;;;;;;5.83;3.33;;;15.10;65.40;;;;;;10429919;28;20228;-74
2023/04/20 11:51:56;;;;;;;4.97;3.47;;;15.10;64.60;;;;;;10433704;28;20318;-74
2023/04/20 11:56:57;;;;;;;3.23;2.93;;;15.00;65.50;;;;;;10419932;28;20666;-73
2023/04/20 12:02:02;;;;;;;4.93;3.80;;;15.10;60.10;;;;;;10426808;28;20221;-74
2023/04/20 12:07:03;;;;;;;4.77;3.10;;;14.50;63.10;;;;;;10426335;28;20220;-73
2023/04/20 12:12:05;;;;;;;4.17;3.10;;;14.80;65.40;;;;;;10433132;28;20721;-73
2023/04/20 12:17:05;;;;;;;6.37;3.13;;;15.10;65.70;;;;;;10430131;28;20733;-74
2023/04/20 12:22:06;;;;;;;13.53;3.37;;;14.50;63.40;;;;;;10430805;28;20229;-75
2023/04/20 12:27:06;;;;;;;4.40;3.10;;;14.20;60.50;;;;;;10430685;28;20219;-74
2023/04/20 12:32:07;;;;;;;3.20;2.73;;;14.20;62.40;;;;;;10432535;28;20243;-74
2023/04/20 12:37:08;;;;;;;5.10;3.07;;;14.60;61.60;;;;;;10429131;28;20257;-74
2023/04/20 12:42:09;;;;;;;6.77;3.40;;;14.60;62.50;;;;;;10431004;28;20649;-73
2023/04/20 12:47:09;;;;;;;5.20;3.10;;;14.70;64.80;;;;;;10430521;28;20394;-72
2023/04/20 12:52:10;;;;;;;4.93;3.40;;;15.00;62.40;;;;;;10430667;28;20233;-73
2023/04/20 12:57:11;;;;;;;4.10;2.80;;;14.70;62.70;;;;;;10423295;28;20232;-74
2023/04/20 13:02:12;;;;;;;6.70;3.07;;;14.30;63.30;;;;;;10427908;28;20302;-74
2023/04/20 13:07:12;;;;;;;4.23;3.30;;;14.10;64.40;;;;;;10423757;28;20299;-73
2023/04/20 13:12:13;;;;;;;14.33;4.80;;;13.80;66.80;;;;;;10425136;28;20227;-74
2023/04/20 13:17:13;;;;;;;5.13;3.50;;;13.50;69.30;;;;;;10422151;28;20224;-72
2023/04/20 13:22:15;;;;;;;6.00;3.80;;;13.40;71.40;;;;;;10420064;28;20285;-70
2023/04/20 13:27:16;;;;;;;7.03;4.67;;;13.20;82.90;;;;;;10400154;28;20217;-73
2023/04/20 13:32:16;;;;;;;6.40;4.30;;;12.00;92.30;;;;;;10410961;28;20247;-72
2023/04/20 13:37:17;;;;;;;4.53;3.90;;;11.80;95.40;;;;;;10427005;28;20232;-72
2023/04/20 13:42:18;;;;;;;18.83;4.60;;;12.00;94.90;;;;;;10427285;28;20347;-72
2023/04/20 13:47:18;;;;;;;7.20;3.80;;;12.40;91.00;;;;;;10426362;28;20220;-72
2023/04/20 13:52:19;;;;;;;6.50;3.10;;;13.00;87.50;;;;;;10422432;28;20612;-72
2023/04/20 13:57:19;;;;;;;4.50;3.37;;;13.30;83.10;;;;;;10404282;28;20217;-72
2023/04/20 14:02:20;;;;;;;4.10;3.13;;;13.20;82.70;;;;;;10427168;28;20199;-72
2023/04/20 14:07:21;;;;;;;4.37;3.30;;;12.80;80.40;;;;;;10424299;28;20216;-70
2023/04/20 14:12:21;;;;;;;3.43;2.97;;;12.80;82.00;;;;;;10419101;28;20719;-72
2023/04/20 14:17:22;;;;;;;4.17;2.97;;;12.70;78.80;;;;;;10421466;28;20228;-71
2023/04/20 14:22:23;;;;;;;3.50;3.00;;;12.70;79.30;;;;;;10419074;28;20233;-72
2023/04/20 14:27:23;;;;;;;5.63;3.43;;;12.50;80.00;;;;;;10419921;28;20230;-72
2023/04/20 14:32:24;;;;;;;4.20;3.10;;;12.60;80.90;;;;;;10422582;28;20303;-72
2023/04/20 14:37:26;;;;;;;6.53;3.40;;;12.30;81.40;;;;;;10426042;28;20236;-72
2023/04/20 14:42:26;;;;;;;7.30;3.43;;;12.10;83.80;;;;;;10420690;28;20223;-73
2023/04/20 14:47:27;;;;;;;4.77;3.23;;;12.20;85.40;;;;;;10425699;28;20219;-72
2023/04/20 14:52:28;;;;;;;4.23;3.50;;;12.30;84.20;;;;;;10405971;28;20698;-71
2023/04/20 14:57:28;;;;;;;4.10;2.67;;;12.60;82.70;;;;;;10419495;28;20269;-70
2023/04/20 15:02:29;;;;;;;4.17;2.97;;;12.70;81.40;;;;;;10419624;28;20246;-70
2023/04/20 15:07:30;;;;;;;6.57;3.50;;;12.70;79.20;;;;;;10417357;28;20227;-71
2023/04/20 15:12:30;;;;;;;3.57;3.00;;;12.70;80.30;;;;;;10418646;28;20953;-71
2023/04/20 15:17:31;;;;;;;3.13;2.83;;;12.60;79.70;;;;;;10378890;28;1058666;-70
2023/04/20 15:22:31;;;;;;;4.80;3.10;;;12.60;79.70;;;;;;10414720;28;20236;-71
2023/04/20 15:27:34;;;;;;;3.57;3.00;;;12.50;78.80;;;;;;10410716;28;20215;-70
2023/04/20 15:32:35;;;;;;;3.30;2.47;;;12.40;80.10;;;;;;10426314;28;20219;-70
2023/04/20 15:37:35;;;;;;;4.93;2.60;;;12.40;79.20;;;;;;10412213;28;20663;-70
2023/04/20 15:42:36;;;;;;;3.30;3.00;;;12.30;79.80;;;;;;10427794;28;20218;-71
2023/04/20 15:47:36;;;;;;;5.13;3.57;;;12.20;81.80;;;;;;10411981;28;20516;-71
2023/04/20 15:52:37;;;;;;;4.77;4.10;;;12.00;85.30;;;;;;10416445;28;20213;-72
2023/04/20 15:57:38;;;;;;;4.37;3.90;;;11.70;90.10;;;;;;10413409;28;20209;-71
2023/04/20 16:02:38;;;;;;;4.57;4.13;;;11.50;91.30;;;;;;10422180;28;20220;-71
2023/04/20 16:07:39;;;;;;;6.40;4.43;;;11.60;92.20;;;;;;10416146;28;20216;-71
2023/04/20 16:12:40;;;;;;;5.10;3.97;;;11.50;92.10;;;;;;10421207;28;20227;-72
2023/04/20 16:17:40;;;;;;;4.73;4.10;;;11.60;92.30;;;;;;10428493;28;20230;-72
2023/04/20 16:22:41;;;;;;;4.17;3.77;;;11.40;92.40;;;;;;10426895;28;20308;-72
2023/04/20 16:27:41;;;;;;;5.40;4.07;;;11.20;93.00;;;;;;10434457;28;20714;-72
2023/04/20 16:32:42;;;;;;;7.93;3.97;;;11.10;93.60;;;;;;10420394;28;20216;-72
2023/04/20 16:37:44;;;;;;;5.00;3.77;;;11.30;93.80;;;;;;10409067;28;20233;-72
2023/04/20 16:42:44;;;;;;;4.70;3.97;;;11.30;94.00;;;;;;10415347;28;20245;-73
2023/04/20 16:47:53;;;;;;;4.33;3.93;;;11.30;94.10;;;;;;10432621;28;20254;-73
2023/04/20 16:52:54;;;;;;;6.43;4.37;;;11.20;94.40;;;;;;10426291;28;20232;-72
2023/04/20 16:57:58;;;;;;;5.27;4.37;;;11.20;94.80;;;;;;10424634;28;20578;-74
2023/04/20 17:03:02;;;;;;;5.17;4.53;;;11.20;95.00;;;;;;10428500;28;20255;-75
2023/04/20 17:08:04;;;;;;;5.40;4.47;;;11.30;95.20;;;;;;10423354;28;20740;-71
2023/04/20 17:13:04;;;;;;;4.53;4.13;;;11.30;95.30;;;;;;10425687;28;20651;-74
2023/04/20 17:18:06;;;;;;;5.87;4.63;;;11.20;96.30;;;;;;10420606;28;20224;-74
2023/04/20 17:23:07;;;;;;;4.70;4.20;;;11.10;96.90;;;;;;10420321;28;20592;-74
2023/04/20 17:28:07;;;;;;;5.43;4.93;;;11.10;97.60;;;;;;10427583;28;20227;-74
2023/04/20 17:33:10;;;;;;;7.10;5.23;;;11.00;98.20;;;;;;10429961;28;20780;-71
2023/04/20 17:38:11;;;;;;;6.47;4.73;;;10.90;98.60;;;;;;10420359;28;20801;-74
2023/04/20 17:43:12;;;;;;;6.00;5.13;;;10.80;99.30;;;;;;10424304;28;20446;-74
2023/04/20 17:48:12;;;;;;;5.53;4.93;;;10.70;99.90;;;;;;10427758;28;20224;-71
2023/04/20 17:53:13;;;;;;;5.70;5.20;;;10.60;99.90;;;;;;10422099;28;20238;-72
2023/04/20 17:58:15;;;;;;;5.00;4.60;;;10.50;99.90;;;;;;10425666;28;20744;-74
2023/04/20 18:03:18;;;;;;;6.37;4.93;;;10.50;99.90;;;;;;10417390;28;20630;-72
2023/04/20 18:08:19;;;;;;;7.73;5.47;;;10.20;99.90;;;;;;10396633;28;20288;-71
2023/04/20 18:13:20;;;;;;;11.43;6.30;;;10.20;99.90;;;;;;10422259;28;20596;-70
2023/04/20 18:18:21;;;;;;;8.20;7.40;;;9.90;99.90;;;;;;10427668;28;20228;-75
2023/04/20 18:23:21;;;;;;;9.27;8.33;;;9.50;99.90;;;;;;10426025;28;20220;-74
2023/04/20 18:28:22;;;;;;;10.43;9.33;;;9.20;99.90;;;;;;10413434;28;20297;-75
2023/04/20 18:33:23;;;;;;;14.70;12.60;;;9.00;99.90;;;;;;10420316;28;20224;-75
2023/04/20 18:38:34;;;;;;;14.80;12.37;;;8.80;99.90;;;;;;10410911;28;20241;-77
2023/04/20 18:43:34;;;;;;;17.57;14.70;;;8.60;99.90;;;;;;10411590;28;20318;-75
2023/04/20 18:48:35;;;;;;;20.07;15.87;;;8.40;99.90;;;;;;10421002;28;20325;-76
2023/04/20 18:53:35;;;;;;;17.93;15.80;;;8.40;99.90;;;;;;10427671;28;20222;-74
2023/04/20 18:58:36;;;;;;;21.20;16.67;;;8.50;99.90;;;;;;10412506;28;20322;-76
2023/04/20 19:03:39;;;;;;;17.60;15.40;;;8.40;99.90;;;;;;10430507;28;20281;-73
2023/04/20 19:08:39;;;;;;;18.03;15.40;;;8.40;99.90;;;;;;10414515;28;20606;-74
2023/04/20 19:13:43;;;;;;;19.30;15.63;;;8.30;99.90;;;;;;10419584;28;20275;-75
2023/04/20 19:18:45;;;;;;;19.53;17.30;;;8.40;99.90;;;;;;10409767;28;20661;-73
2023/04/20 19:23:46;;;;;;;14.97;13.40;;;8.40;99.90;;;;;;10421215;28;20220;-73
2023/04/20 19:28:47;;;;;;;17.53;15.73;;;8.30;99.90;;;;;;10415929;28;20718;-71
2023/04/20 19:33:47;;;;;;;16.40;14.70;;;8.30;99.90;;;;;;10417255;28;20282;-77
2023/04/20 19:38:48;;;;;;;13.70;12.30;;;8.50;99.90;;;;;;10422562;28;20240;-81
2023/04/20 19:43:49;;;;;;;13.50;11.87;;;8.40;99.90;;;;;;10418938;28;20231;-75
2023/04/20 19:48:49;;;;;;;11.37;9.80;;;8.50;99.90;;;;;;10410123;28;20333;-71
2023/04/20 19:53:50;;;;;;;11.90;9.80;;;8.60;99.90;;;;;;10401602;28;20635;-71
2023/04/20 19:58:51;;;;;;;11.83;10.63;;;8.60;99.90;;;;;;10425153;28;20228;-73
2023/04/20 20:03:52;;;;;;;12.63;11.10;;;8.80;99.90;;;;;;10434047;28;20684;-75
2023/04/20 20:08:52;;;;;;;12.33;11.03;;;8.70;99.90;;;;;;10422788;28;20226;-74
2023/04/20 20:13:53;;;;;;;12.27;11.07;;;8.80;99.90;;;;;;10427210;28;20223;-71
2023/04/20 20:18:54;;;;;;;13.40;11.73;;;8.70;99.90;;;;;;10426059;28;20711;-73
2023/04/20 20:23:54;;;;;;;15.07;12.33;;;8.80;99.90;;;;;;10433358;28;20283;-75
2023/04/20 20:28:55;;;;;;;14.40;11.67;;;8.80;99.90;;;;;;10419984;28;20258;-72
2023/04/20 20:33:56;;;;;;;13.47;11.67;;;8.80;99.90;;;;;;10419923;28;20223;-74
2023/04/20 20:38:59;;;;;;;13.60;11.83;;;8.80;99.90;;;;;;10427327;28;20228;-73
2023/04/20 20:44:01;;;;;;;16.67;13.30;;;8.90;99.90;;;;;;10424906;28;20242;-75
2023/04/20 20:49:01;;;;;;;13.33;12.00;;;9.00;99.90;;;;;;10429543;28;20691;-73
2023/04/20 20:54:02;;;;;;;14.20;12.80;;;9.00;99.90;;;;;;10426368;28;20286;-74
2023/04/20 20:59:03;;;;;;;13.20;11.83;;;9.00;99.90;;;;;;10424051;28;20235;-73
2023/04/20 21:04:03;;;;;;;14.47;12.90;;;8.90;99.90;;;;;;10427276;28;20297;-74
2023/04/20 21:09:04;;;;;;;14.23;12.73;;;8.90;99.90;;;;;;10423960;28;20744;-74
2023/04/20 21:14:05;;;;;;;13.93;12.43;;;8.90;99.90;;;;;;10431268;28;20224;-73
2023/04/20 21:19:05;;;;;;;16.43;13.60;;;9.00;99.90;;;;;;10415805;28;20227;-73
2023/04/20 21:24:12;;;;;;;16.03;14.13;;;9.00;99.90;;;;;;10423395;28;20223;-72
2023/04/20 21:29:12;;;;;;;16.00;14.13;;;8.90;99.90;;;;;;10421054;28;20227;-73
2023/04/20 21:34:13;;;;;;;15.60;14.03;;;8.80;99.90;;;;;;10429149;28;20228;-72
2023/04/20 21:39:14;;;;;;;21.13;17.97;;;8.80;99.90;;;;;;10431373;28;20232;-73
2023/04/20 21:44:14;;;;;;;20.40;18.17;;;8.90;99.90;;;;;;10424488;28;20220;-77
2023/04/20 21:49:15;;;;;;;19.60;17.60;;;8.90;99.90;;;;;;10417183;28;20243;-76
2023/04/20 21:54:15;;;;;;;20.37;18.27;;;8.90;99.90;;;;;;10417606;28;20242;-75
2023/04/20 21:59:16;;;;;;;22.20;19.87;;;8.90;99.90;;;;;;10424196;28;20219;-76
2023/04/20 22:04:17;;;;;;;20.43;18.33;;;8.90;99.90;;;;;;10429001;28;20274;-76
2023/04/20 22:09:18;;;;;;;21.70;19.40;;;8.90;99.90;;;;;;10426797;28;20663;-74
2023/04/20 22:14:18;;;;;;;27.70;21.40;;;8.80;99.90;;;;;;10422670;28;20237;-74
2023/04/20 22:19:20;;;;;;;29.00;22.00;;;8.80;99.90;;;;;;10427803;28;20256;-74
2023/04/20 22:24:20;;;;;;;24.07;20.97;;;8.70;99.90;;;;;;10426704;28;20316;-74
2023/04/20 22:29:21;;;;;;;23.57;20.90;;;8.70;99.90;;;;;;10425186;28;20334;-74
2023/04/20 22:34:21;;;;;;;24.17;21.63;;;8.70;99.90;;;;;;10421707;28;20231;-74
2023/04/20 22:39:22;;;;;;;25.87;23.03;;;8.70;99.90;;;;;;10427472;28;20236;-76
2023/04/20 22:44:22;;;;;;;28.07;22.23;;;8.70;99.90;;;;;;10423952;28;20216;-75
2023/04/20 22:49:23;;;;;;;25.30;22.10;;;8.70;99.90;;;;;;10428748;28;20734;-76
2023/04/20 22:54:24;;;;;;;24.73;22.13;;;8.70;99.90;;;;;;10427784;28;20641;-75
2023/04/20 22:59:25;;;;;;;27.10;24.27;;;8.60;99.90;;;;;;10430104;28;20286;-74
2023/04/20 23:04:25;;;;;;;25.83;23.10;;;8.60;99.90;;;;;;10430153;28;20224;-76
2023/04/20 23:09:26;;;;;;;27.63;24.63;;;8.50;99.90;;;;;;10413957;28;20755;-74
2023/04/20 23:14:26;;;;;;;28.57;25.57;;;8.40;99.90;;;;;;10421929;28;20892;-75
2023/04/20 23:19:31;;;;;;;30.40;25.43;;;8.30;99.90;;;;;;10423419;28;20282;-76
2023/04/20 23:24:34;;;;;;;30.70;27.33;;;8.30;99.90;;;;;;10416523;28;20683;-72
2023/04/20 23:29:35;;;;;;;30.53;27.30;;;8.40;99.90;;;;;;10426398;28;20250;-70
2023/04/20 23:34:35;;;;;;;32.83;26.43;;;8.30;99.90;;;;;;10426803;28;20355;-72
2023/04/20 23:39:37;;;;;;;30.60;27.40;;;8.30;99.90;;;;;;10435981;28;20318;-72
2023/04/20 23:44:37;;;;;;;27.70;24.70;;;8.30;99.90;;;;;;10429938;28;20212;-72
2023/04/20 23:49:38;;;;;;;27.47;24.57;;;8.20;99.90;;;;;;10423786;28;20342;-75
2023/04/20 23:54:38;;;;;;;27.47;24.57;;;8.10;99.90;;;;;;10429521;28;20224;-74
2023/04/20 23:59:39;;;;;;;29.27;25.90;;;8.10;99.90;;;;;;10429220;28;20781;-75
